< < Back
Terminal Aerodrome Forecast


Current Version              Previous Versions:   1  2  3  4  5  6  7  8  9  

Terminal Aerodrome Forecast

523
FTUS44 KBMX 161600 AAB
TAFANB
TAF AMD
KANB 161613Z 1616/1712 32006KT P6SM BKN010 BKN040
     FM161800 33006KT P6SM SCT025 SCT040
      TEMPO 1620/1623 6SM -TSRA BR OVC040CB
     FM170100 33003KT P6SM SCT250=

Latest METAR

456
SAUS70 KWBC 161900 RRN
MTRANB
METAR KANB 161853Z AUTO 21004KT 10SM FEW019 27/22 A3005 RMK AO2 SLP166
T02670222


USA.gov is the U.S. government's official web portal to all federal, state and local government web resources and services.